Time;durP1;ratioP1;P1;durP2;ratioP2;P2;SDS_P1;SDS_P2;PMS_P1;PMS_P2;Temp;Humidity;BMP_temperature;BMP_pressure;BME280_temperature;BME280_humidity;BME280_pressure;Samples;Min_cycle;Max_cycle;Signal;HPM_P1;HPM_P2
2022/07/22 00:02:26;;;;;;;23.23;13.80;;;;;;;22.03;71.48;101433.66;5030140;28;20413;-64
2022/07/22 00:04:53;;;;;;;24.08;14.00;;;;;;;22.02;71.58;101426.41;5025424;28;20650;-64
2022/07/22 00:07:21;;;;;;;20.17;13.10;;;;;;;22.14;70.99;101429.03;5016968;28;20046;-64
2022/07/22 00:09:48;;;;;;;31.85;14.38;;;;;;;22.15;70.64;101438.28;5037647;28;20045;-64
2022/07/22 00:12:15;;;;;;;25.35;14.20;;;;;;;21.93;71.52;101428.66;5032825;28;20046;-64
2022/07/22 00:14:43;;;;;;;30.13;13.57;;;;;;;21.96;71.78;101427.13;5035752;28;20049;-64
2022/07/22 00:17:10;;;;;;;23.13;13.70;;;;;;;21.82;71.81;101432.47;5044318;28;20053;-65
2022/07/22 00:19:37;;;;;;;19.48;12.77;;;;;;;21.85;72.13;101440.94;5032281;28;20057;-64
2022/07/22 00:22:05;;;;;;;22.52;12.85;;;;;;;21.81;72.01;101437.25;5031623;28;20050;-64
2022/07/22 00:24:32;;;;;;;21.33;13.07;;;;;;;21.62;72.78;101434.44;5037235;28;20064;-64
2022/07/22 00:26:59;;;;;;;20.10;13.25;;;;;;;21.48;73.38;101428.53;5030949;28;20049;-63
2022/07/22 00:29:26;;;;;;;22.35;12.60;;;;;;;21.45;73.47;101428.47;5013186;28;20497;-63
2022/07/22 00:31:54;;;;;;;21.50;12.35;;;;;;;21.45;73.73;101425.66;5036011;28;20049;-63
2022/07/22 00:34:21;;;;;;;19.20;11.95;;;;;;;21.50;73.58;101426.19;5029334;28;20460;-63
2022/07/22 00:36:48;;;;;;;19.83;12.27;;;;;;;21.49;73.58;101420.97;5046059;28;20066;-64
2022/07/22 00:39:16;;;;;;;19.13;12.30;;;;;;;21.39;74.01;101415.94;5029478;28;20053;-64
2022/07/22 00:41:43;;;;;;;23.38;12.60;;;;;;;21.53;73.45;101422.63;5029586;28;20049;-64
2022/07/22 00:44:12;;;;;;;20.73;11.68;;;;;;;21.70;72.91;101416.59;5034836;28;20061;-64
2022/07/22 00:46:39;;;;;;;23.73;11.98;;;;;;;21.77;72.24;101402.69;5038596;28;20049;-63
2022/07/22 00:49:08;;;;;;;20.92;12.32;;;;;;;21.70;72.66;101407.34;5025399;28;20065;-63
2022/07/22 00:51:36;;;;;;;18.60;12.25;;;;;;;21.65;72.70;101402.06;5045278;28;20052;-64
2022/07/22 00:54:03;;;;;;;19.10;11.75;;;;;;;21.50;73.06;101403.75;5008471;28;20404;-64
2022/07/22 00:56:31;;;;;;;20.60;12.48;;;;;;;21.47;73.53;101396.09;5028981;28;20488;-64
2022/07/22 00:59:01;;;;;;;24.17;12.05;;;;;;;21.36;73.62;101397.88;5044286;28;20061;-64
2022/07/22 01:01:28;;;;;;;19.73;11.75;;;;;;;21.46;73.46;101402.91;5032559;28;20522;-65
2022/07/22 01:03:56;;;;;;;19.20;12.07;;;;;;;21.58;72.71;101401.91;5030950;28;20512;-64
2022/07/22 01:06:29;;;;;;;20.02;11.75;;;;;;;21.44;72.86;101401.63;5030592;28;20538;-64
2022/07/22 01:08:56;;;;;;;20.50;12.40;;;;;;;21.29;73.40;101396.94;5035457;28;20065;-63
2022/07/22 01:11:25;;;;;;;21.65;12.25;;;;;;;21.00;74.44;101401.94;5028466;28;20061;-64
2022/07/22 01:13:54;;;;;;;22.38;12.40;;;;;;;21.06;74.98;101396.84;5023679;28;20053;-64
2022/07/22 01:16:21;;;;;;;19.67;11.32;;;;;;;21.05;74.83;101395.22;5032963;28;20060;-65
2022/07/22 01:18:49;;;;;;;24.10;11.90;;;;;;;21.14;74.64;101398.63;5035265;28;20512;-65
2022/07/22 01:21:17;;;;;;;20.20;12.35;;;;;;;20.97;74.60;101401.81;5050142;28;20061;-65
2022/07/22 01:23:45;;;;;;;16.55;11.43;;;;;;;21.01;74.56;101385.91;5029324;28;20057;-65
2022/07/22 01:26:12;;;;;;;20.33;11.65;;;;;;;20.96;75.03;101402.97;5048770;28;20068;-64
2022/07/22 01:28:40;;;;;;;17.95;11.40;;;;;;;20.97;75.05;101385.03;5028238;28;20054;-64
2022/07/22 01:31:08;;;;;;;17.02;11.50;;;;;;;20.83;75.77;101393.09;5043471;28;20057;-64
2022/07/22 01:33:36;;;;;;;19.10;11.05;;;;;;;21.02;74.89;101387.56;5028522;28;20045;-63
2022/07/22 01:36:04;;;;;;;22.83;11.25;;;;;;;20.94;74.52;101388.53;5028833;28;20053;-64
2022/07/22 01:38:31;;;;;;;18.58;10.45;;;;;;;21.10;74.36;101387.34;5034339;28;20052;-67
2022/07/22 01:40:59;;;;;;;22.38;11.18;;;;;;;21.27;73.23;101389.69;5033859;28;20057;-64
2022/07/22 01:43:28;;;;;;;20.95;11.20;;;;;;;21.23;73.36;101390.81;5037440;28;20052;-64
2022/07/22 01:45:56;;;;;;;18.70;11.05;;;;;;;21.16;73.78;101388.69;5046397;28;20404;-65
2022/07/22 01:48:24;;;;;;;17.00;10.80;;;;;;;21.02;73.93;101391.19;5049985;28;20511;-65
2022/07/22 01:50:51;;;;;;;22.80;11.52;;;;;;;20.99;73.81;101385.50;5060964;28;20060;-64
2022/07/22 01:53:18;;;;;;;17.95;10.80;;;;;;;21.02;73.47;101376.34;5029404;28;20068;-64
2022/07/22 01:55:47;;;;;;;21.67;12.25;;;;;;;20.83;74.46;101387.50;5014694;28;20061;-66
2022/07/22 01:58:16;;;;;;;20.30;11.60;;;;;;;20.77;74.88;101383.34;5024462;28;20049;-65
2022/07/22 02:00:44;;;;;;;21.40;11.60;;;;;;;20.77;74.91;101375.78;5021722;28;20489;-67
2022/07/22 02:03:12;;;;;;;18.33;11.23;;;;;;;20.84;74.86;101378.72;5030547;28;20046;-65
2022/07/22 02:05:39;;;;;;;20.60;11.27;;;;;;;20.85;74.72;101374.75;5021756;28;20415;-66
2022/07/22 02:08:18;;;;;;;22.35;11.13;;;;;;;20.99;74.49;101369.47;5034569;28;20743;-64
2022/07/22 02:11:12;;;;;;;17.10;11.00;;;;;;;20.80;74.08;101375.03;5032088;28;20065;-64
2022/07/22 02:13:53;;;;;;;19.40;10.52;;;;;;;20.47;75.45;101383.06;5019783;28;20060;-65
2022/07/22 02:16:21;;;;;;;23.35;11.43;;;;;;;20.46;76.49;101380.63;5039084;28;20412;-63
2022/07/22 02:18:50;;;;;;;17.70;10.50;;;;;;;20.50;76.19;101378.75;5035787;28;20045;-64
2022/07/22 02:21:18;;;;;;;19.98;10.63;;;;;;;20.65;75.74;101377.88;5020020;28;20046;-63
2022/07/22 02:23:45;;;;;;;17.75;10.40;;;;;;;20.90;74.66;101373.66;5030355;28;20042;-64
2022/07/22 02:26:13;;;;;;;21.25;10.77;;;;;;;20.85;74.23;101371.16;5032114;28;20057;-65
2022/07/22 02:28:40;;;;;;;18.02;10.43;;;;;;;20.69;74.53;101375.97;5026723;28;20064;-65
2022/07/22 02:31:07;;;;;;;20.27;11.10;;;;;;;20.70;74.34;101388.78;5028407;28;20056;-64
2022/07/22 02:33:35;;;;;;;22.05;10.98;;;;;;;20.57;75.19;101390.09;5042964;28;20057;-64
2022/07/22 02:36:03;;;;;;;18.33;9.98;;;;;;;20.49;75.25;101380.72;5022841;28;20064;-65
2022/07/22 02:38:33;;;;;;;19.83;10.63;;;;;;;20.51;75.33;101385.94;5036519;28;20049;-63
2022/07/22 02:41:00;;;;;;;19.25;10.70;;;;;;;20.41;76.14;101386.50;5005759;28;20050;-63
2022/07/22 02:43:28;;;;;;;19.00;10.38;;;;;;;20.50;75.40;101387.97;5014378;28;20050;-63
2022/07/22 02:45:56;;;;;;;21.13;11.10;;;;;;;20.45;75.49;101381.81;5041269;28;20053;-65
2022/07/22 02:48:24;;;;;;;20.05;10.65;;;;;;;20.53;75.26;101381.63;5027024;28;20056;-65
2022/07/22 02:50:52;;;;;;;20.23;10.35;;;;;;;20.54;74.96;101376.84;5013344;28;20061;-64
2022/07/22 02:53:23;;;;;;;19.95;10.50;;;;;;;20.69;74.13;101375.97;5043394;28;20053;-64
2022/07/22 02:55:52;;;;;;;18.40;10.45;;;;;;;20.64;73.72;101371.47;5022334;28;20057;-64
2022/07/22 02:58:20;;;;;;;15.57;9.55;;;;;;;20.48;74.67;101367.91;5027169;28;20167;-63
2022/07/22 03:00:47;;;;;;;19.80;10.48;;;;;;;20.35;75.50;101368.38;5028652;28;20052;-63
2022/07/22 03:03:15;;;;;;;18.30;10.15;;;;;;;20.31;75.38;101373.09;5034433;28;20049;-65
2022/07/22 03:05:42;;;;;;;17.17;10.63;;;;;;;20.38;75.22;101374.03;5042197;28;20053;-65
2022/07/22 03:08:23;;;;;;;18.05;10.20;;;;;;;20.49;74.95;101354.72;5035798;28;20465;-65
2022/07/22 03:10:52;;;;;;;16.95;9.32;;;;;;;20.69;73.96;101357.22;5022511;28;20042;-63
2022/07/22 03:13:20;;;;;;;18.45;9.95;;;;;;;20.70;73.81;101358.00;5036168;28;20064;-63
2022/07/22 03:15:48;;;;;;;15.55;9.23;;;;;;;20.58;73.48;101358.13;5028631;28;20068;-65
2022/07/22 03:18:15;;;;;;;17.15;9.32;;;;;;;20.71;73.36;101362.44;5033241;28;20068;-63
2022/07/22 03:20:42;;;;;;;15.43;9.38;;;;;;;20.64;73.85;101363.06;5035039;28;20050;-63
2022/07/22 03:23:10;;;;;;;14.93;9.77;;;;;;;20.66;73.12;101363.50;5033081;28;20049;-64
2022/07/22 03:25:38;;;;;;;18.27;10.48;;;;;;;20.56;73.24;101358.50;5026831;28;20053;-64
2022/07/22 03:28:06;;;;;;;15.73;9.80;;;;;;;20.57;73.23;101354.53;5025988;28;20252;-63
2022/07/22 03:30:34;;;;;;;16.55;9.15;;;;;;;20.58;73.75;101349.72;5033810;28;20068;-64
2022/07/22 03:33:01;;;;;;;16.33;9.25;;;;;;;20.39;73.57;101370.09;5026083;28;20054;-64
2022/07/22 03:35:32;;;;;;;17.00;9.63;;;;;;;20.40;74.32;101362.50;5049095;28;20050;-64
2022/07/22 03:37:59;;;;;;;18.23;9.13;;;;;;;20.38;74.12;101362.06;5029646;28;20050;-65
2022/07/22 03:40:28;;;;;;;20.02;9.38;;;;;;;20.13;74.69;101365.03;5029993;28;20042;-64
2022/07/22 03:42:57;;;;;;;18.98;9.23;;;;;;;20.00;75.20;101366.31;5036991;28;20049;-64
2022/07/22 03:45:24;;;;;;;18.27;9.77;;;;;;;19.89;75.63;101358.81;5033218;28;20061;-64
2022/07/22 03:47:54;;;;;;;21.73;10.43;;;;;;;19.97;75.90;101358.63;5035105;28;20049;-63
2022/07/22 03:50:24;;;;;;;19.33;9.38;;;;;;;19.96;75.96;101362.59;5045587;28;20396;-64
2022/07/22 03:52:51;;;;;;;18.83;9.75;;;;;;;19.88;75.88;101368.38;5030246;28;20069;-64
2022/07/22 03:55:19;;;;;;;19.38;10.13;;;;;;;19.94;75.98;101375.31;5030285;28;20057;-67
2022/07/22 03:57:50;;;;;;;18.17;9.90;;;;;;;19.83;76.22;101354.66;5030691;28;20065;-64
2022/07/22 04:00:24;;;;;;;19.15;9.70;;;;;;;19.99;75.88;101361.06;5041450;28;20049;-65
2022/07/22 04:02:52;;;;;;;18.58;9.35;;;;;;;20.01;75.36;101359.53;5036227;28;20054;-67
2022/07/22 04:05:38;;;;;;;20.63;9.82;;;;;;;20.08;75.45;101364.50;5037216;28;20499;-66
2022/07/22 04:08:07;;;;;;;21.98;9.68;;;;;;;20.02;74.96;101372.34;5028419;28;20082;-65
2022/07/22 04:10:35;;;;;;;19.95;10.73;;;;;;;19.76;76.21;101363.69;5036808;28;20045;-64
2022/07/22 04:13:03;;;;;;;17.83;9.23;;;;;;;20.02;75.84;101358.38;5031859;28;20061;-64
2022/07/22 04:15:42;;;;;;;21.17;9.70;;;;;;;19.92;75.67;101358.09;5028566;28;20660;-64
2022/07/22 04:18:10;;;;;;;16.17;9.77;;;;;;;19.91;75.34;101364.88;5052365;28;20519;-64
2022/07/22 04:20:37;;;;;;;17.45;9.60;;;;;;;19.88;75.74;101358.00;5043463;28;20057;-64
2022/07/22 04:23:28;;;;;;;16.25;10.15;;;;;;;19.91;75.78;101357.28;5038626;28;20535;-63
2022/07/22 04:26:10;;;;;;;24.65;10.38;;;;;;;19.84;75.95;101350.72;5025281;28;20408;-63
2022/07/22 04:28:37;;;;;;;19.83;10.38;;;;;;;20.01;74.95;101356.72;5027726;28;20061;-64
2022/07/22 04:31:05;;;;;;;19.98;10.07;;;;;;;19.95;75.25;101358.19;5045800;28;20124;-64
2022/07/22 04:33:34;;;;;;;15.90;9.63;;;;;;;19.99;75.01;101344.28;5048253;28;20132;-64
2022/07/22 04:36:02;;;;;;;22.92;9.95;;;;;;;20.09;74.51;101349.34;5045415;28;20056;-64
2022/07/22 04:38:29;;;;;;;19.67;9.77;;;;;;;20.06;74.59;101350.06;5041011;28;20060;-64
2022/07/22 04:41:03;;;;;;;19.13;10.43;;;;;;;19.88;75.35;101343.19;5038273;28;20065;-64
2022/07/22 04:43:31;;;;;;;14.30;9.73;;;;;;;19.84;74.85;101347.91;5029326;28;20164;-64
2022/07/22 04:45:59;;;;;;;19.80;10.02;;;;;;;19.61;76.32;101352.47;5029591;28;20079;-64
2022/07/22 04:48:31;;;;;;;20.27;10.43;;;;;;;19.44;77.02;101350.03;5046958;28;20061;-62
2022/07/22 04:51:00;;;;;;;20.92;9.68;;;;;;;19.48;77.45;101348.94;5019153;28;20056;-63
2022/07/22 04:53:29;;;;;;;23.48;10.18;;;;;;;19.74;76.09;101346.44;5035772;28;20385;-63
2022/07/22 04:56:16;;;;;;;20.75;10.75;;;;;;;19.76;76.41;101341.31;5024301;28;20080;-64
2022/07/22 04:58:45;;;;;;;16.63;9.93;;;;;;;19.95;75.90;101335.81;5030525;28;20516;-63
2022/07/22 05:01:13;;;;;;;17.75;9.57;;;;;;;20.16;74.47;101332.75;5043006;28;20049;-64
2022/07/22 05:03:42;;;;;;;;;;;;;;;20.06;74.70;101330.47;5026017;28;20496;-64
2022/07/22 05:06:12;;;;;;;19.52;9.60;;;;;;;20.07;74.05;101330.13;5036369;28;19929;-64
2022/07/22 05:08:42;;;;;;;20.85;9.98;;;;;;;20.15;74.34;101331.91;5058058;28;20060;-64
2022/07/22 05:11:09;;;;;;;18.08;9.95;;;;;;;20.31;73.51;101331.91;5044425;28;20500;-63
2022/07/22 05:13:37;;;;;;;18.10;9.32;;;;;;;20.11;74.18;101331.03;5028350;28;20053;-63
2022/07/22 05:16:06;;;;;;;19.27;9.90;;;;;;;19.76;74.92;101332.09;5034511;28;20828;-64
2022/07/22 05:18:36;;;;;;;17.08;9.60;;;;;;;20.21;74.36;101324.06;5014880;28;20500;-65
2022/07/22 05:21:04;;;;;;;21.30;9.75;;;;;;;20.14;73.67;101338.69;5027352;28;20049;-65
2022/07/22 05:23:33;;;;;;;23.50;10.00;;;;;;;20.15;73.70;101331.13;5030470;28;20053;-64
2022/07/22 05:26:00;;;;;;;23.77;9.63;;;;;;;20.04;74.44;101330.84;5025028;28;20045;-64
2022/07/22 05:28:28;;;;;;;23.20;9.60;;;;;;;19.77;74.68;101328.94;5031659;28;20045;-63
2022/07/22 05:30:56;;;;;;;22.88;10.55;;;;;;;19.83;75.09;101324.72;5049843;28;20042;-63
2022/07/22 05:33:26;;;;;;;19.90;9.93;;;;;;;19.97;74.48;101332.66;5044188;28;20045;-63
2022/07/22 05:36:04;;;;;;;18.52;9.60;;;;;;;19.95;74.85;101329.41;5019804;28;20057;-64
2022/07/22 05:38:42;;;;;;;20.73;10.55;;;;;;;20.10;74.32;101326.59;5033814;28;20412;-65
2022/07/22 05:41:10;;;;;;;16.95;9.48;;;;;;;19.96;74.05;101329.03;5027962;28;20053;-64
2022/07/22 05:43:38;;;;;;;20.70;9.38;;;;;;;20.15;74.02;101323.50;5029578;28;20053;-64
2022/07/22 05:46:07;;;;;;;20.13;9.70;;;;;;;20.35;72.56;101320.78;5034987;28;20124;-63
2022/07/22 05:48:34;;;;;;;25.35;10.27;;;;;;;20.49;72.23;101316.34;5028807;28;20065;-64
2022/07/22 05:51:02;;;;;;;23.98;9.38;;;;;;;20.50;71.85;101323.59;5031328;28;20057;-63
2022/07/22 05:53:31;;;;;;;26.93;11.00;;;;;;;20.31;72.93;101329.09;5022219;28;20056;-64
2022/07/22 05:55:59;;;;;;;28.60;11.25;;;;;;;19.97;73.88;101325.09;5039412;28;20057;-65
2022/07/22 05:58:33;;;;;;;18.65;10.25;;;;;;;20.13;73.55;101323.09;5027532;28;20065;-65
2022/07/22 06:01:01;;;;;;;21.10;10.25;;;;;;;20.19;73.18;101308.84;5030312;28;20042;-63
2022/07/22 06:03:28;;;;;;;21.25;10.40;;;;;;;20.54;71.91;101306.88;5021822;28;20041;-64
2022/07/22 06:05:58;;;;;;;17.60;9.95;;;;;;;20.50;72.09;101306.78;5014604;28;20062;-63
2022/07/22 06:08:26;;;;;;;18.95;10.77;;;;;;;20.57;71.47;101312.56;5028999;28;20045;-63
2022/07/22 06:10:53;;;;;;;29.38;10.35;;;;;;;20.26;71.99;101304.22;5016985;28;20042;-64
2022/07/22 06:13:25;;;;;;;19.45;10.10;;;;;;;20.04;73.67;101316.88;5039320;28;20041;-66
2022/07/22 06:15:53;;;;;;;26.58;11.43;;;;;;;20.14;73.11;101324.69;5023811;28;20409;-65
2022/07/22 06:18:21;;;;;;;24.40;11.10;;;;;;;20.29;73.33;101325.06;5014355;28;20056;-66
2022/07/22 06:20:49;;;;;;;23.60;10.98;;;;;;;20.41;72.76;101325.78;5015718;28;20058;-65
2022/07/22 06:23:17;;;;;;;19.58;10.02;;;;;;;20.42;72.29;101320.97;5027500;28;20042;-66
2022/07/22 06:25:46;;;;;;;22.45;10.15;;;;;;;20.43;72.02;101314.22;5041593;28;20509;-64
2022/07/22 06:28:23;;;;;;;19.75;10.85;;;;;;;20.66;71.66;101315.13;5021883;28;20045;-64
2022/07/22 06:30:51;;;;;;;22.05;9.77;;;;;;;21.02;69.78;101317.53;5021093;28;20050;-66
2022/07/22 06:33:23;;;;;;;20.60;10.38;;;;;;;21.17;69.64;101316.63;5027245;28;20061;-67
2022/07/22 06:35:51;;;;;;;20.02;10.15;;;;;;;20.89;69.38;101311.22;5039697;28;20048;-67
2022/07/22 06:38:19;;;;;;;18.33;10.30;;;;;;;20.84;69.80;101319.94;5010106;28;20049;-63
2022/07/22 06:41:32;;;;;;;21.40;10.43;;;;;;;20.90;69.65;101323.25;5019590;28;20061;-64
2022/07/22 06:44:03;;;;;;;19.38;10.27;;;;;;;20.70;70.22;101314.03;5029976;28;20056;-65
2022/07/22 06:46:51;;;;;;;22.50;10.77;;;;;;;20.91;69.65;101319.25;5022502;28;20084;-64
2022/07/22 06:49:21;;;;;;;21.58;10.30;;;;;;;21.08;69.46;101318.84;5029406;28;20049;-65
2022/07/22 06:51:52;;;;;;;15.40;9.13;;;;;;;21.34;68.77;101332.19;5043602;28;20056;-65
2022/07/22 06:54:19;;;;;;;22.33;10.23;;;;;;;21.21;68.61;101337.13;5033265;28;20572;-64
2022/07/22 06:56:49;;;;;;;15.37;9.77;;;;;;;21.39;67.89;101335.50;5032737;28;20053;-62
2022/07/22 06:59:23;;;;;;;20.23;10.57;;;;;;;21.36;67.97;101336.22;5023231;28;20545;-61
2022/07/22 07:01:52;;;;;;;24.33;11.00;;;;;;;21.44;67.24;101331.56;5018306;28;20069;-62
2022/07/22 07:04:20;;;;;;;19.25;11.32;;;;;;;21.55;67.05;101329.78;5037038;28;20050;-62
2022/07/22 07:06:49;;;;;;;20.25;10.52;;;;;;;20.85;69.70;101329.16;5029341;28;20087;-59
2022/07/22 07:09:31;;;;;;;19.27;10.30;;;;;;;21.05;69.42;101331.59;5028412;28;20045;-62
2022/07/22 07:12:11;;;;;;;29.63;11.55;;;;;;;21.40;68.35;101327.88;5027347;28;20049;-59
2022/07/22 07:14:57;;;;;;;21.20;9.68;;;;;;;21.86;67.12;101310.72;5035319;28;20056;-60
2022/07/22 07:17:47;;;;;;;22.17;11.25;;;;;;;21.62;67.04;101308.25;5039003;28;20061;-60
2022/07/22 07:20:16;;;;;;;18.13;10.60;;;;;;;21.46;67.21;101302.00;5035585;28;20436;-59
2022/07/22 07:22:44;;;;;;;23.40;11.05;;;;;;;21.49;67.16;101290.03;5019485;28;21519;-59
2022/07/22 07:25:11;;;;;;;23.92;11.85;;;;;;;21.52;67.30;101310.88;5025176;28;20116;-63
2022/07/22 07:27:51;;;;;;;27.42;11.30;;;;;;;21.42;67.67;101309.50;5027913;28;20057;-62
2022/07/22 07:30:24;;;;;;;26.65;10.07;;;;;;;21.66;67.02;101305.53;5038310;28;20053;-60
2022/07/22 07:32:51;;;;;;;28.27;9.98;;;;;;;21.81;67.03;101307.44;5058342;28;20052;-61
2022/07/22 07:35:19;;;;;;;28.75;10.90;;;;;;;22.28;65.64;101297.38;5039851;28;20052;-62
2022/07/22 07:37:47;;;;;;;25.40;10.88;;;;;;;22.12;65.02;101307.94;5043094;28;20056;-63
2022/07/22 07:40:15;;;;;;;23.30;10.35;;;;;;;22.06;65.87;101298.25;5025266;28;20053;-64
2022/07/22 07:42:43;;;;;;;26.42;10.90;;;;;;;22.29;64.65;101309.41;5020238;28;20053;-64
2022/07/22 07:45:17;;;;;;;24.25;10.52;;;;;;;22.44;64.01;101311.22;5020373;28;20065;-65
2022/07/22 07:47:47;;;;;;;;;;;;;;;22.20;64.97;101314.47;5036428;28;20052;-63
2022/07/22 07:50:15;;;;;;;24.30;10.70;;;;;;;22.48;64.11;101314.91;5053760;28;19929;-63
2022/07/22 07:52:47;;;;;;;21.35;9.23;;;;;;;22.64;63.84;101315.56;5041920;28;20475;-64
2022/07/22 07:55:20;;;;;;;20.13;10.30;;;;;;;22.90;62.70;101317.50;5029307;28;20051;-63
2022/07/22 07:57:48;;;;;;;23.67;10.35;;;;;;;22.80;62.69;101321.00;5035654;28;20054;-63
2022/07/22 08:00:22;;;;;;;26.50;10.38;;;;;;;22.96;62.74;101322.41;5034218;28;20049;-64
2022/07/22 08:02:50;;;;;;;23.98;10.95;;;;;;;23.04;62.25;101312.06;5041006;28;20056;-64
2022/07/22 08:05:21;;;;;;;24.50;11.00;;;;;;;22.86;62.21;101311.84;5020926;28;20044;-64
2022/07/22 08:07:50;;;;;;;28.40;12.30;;;;;;;22.75;62.29;101319.31;5051270;28;20062;-64
2022/07/22 08:10:19;;;;;;;22.15;11.35;;;;;;;22.78;62.42;101312.13;5030550;28;20057;-63
2022/07/22 08:13:24;;;;;;;23.10;11.20;;;;;;;22.80;62.72;101306.94;5047974;28;20058;-63
2022/07/22 08:16:03;;;;;;;23.70;11.02;;;;;;;23.02;61.85;101303.22;5039935;28;20050;-64
2022/07/22 08:18:31;;;;;;;23.33;10.27;;;;;;;23.25;61.64;101298.25;5036472;28;20046;-63
2022/07/22 08:20:59;;;;;;;24.35;11.05;;;;;;;23.06;61.43;101295.63;5024122;28;20053;-64
2022/07/22 08:23:45;;;;;;;22.20;11.25;;;;;;;23.21;61.73;101300.22;5033129;28;20053;-63
2022/07/22 08:26:12;;;;;;;24.02;9.95;;;;;;;23.48;60.95;101295.31;5044837;28;20079;-63
2022/07/22 08:28:40;;;;;;;23.17;9.90;;;;;;;23.46;60.36;101292.06;5045155;28;20060;-63
2022/07/22 08:31:07;;;;;;;23.00;10.77;;;;;;;23.45;60.23;101282.03;5049057;28;20053;-63
2022/07/22 08:33:35;;;;;;;20.48;10.43;;;;;;;23.07;61.58;101286.81;5044464;28;20053;-63
2022/07/22 08:36:03;;;;;;;27.70;11.40;;;;;;;23.26;61.31;101292.25;5050863;28;20064;-62
2022/07/22 08:38:31;;;;;;;25.52;10.80;;;;;;;23.36;60.90;101299.22;5046165;28;20040;-63
2022/07/22 08:41:00;;;;;;;18.65;10.00;;;;;;;23.58;60.58;101300.22;5027820;28;20049;-62
2022/07/22 08:43:35;;;;;;;17.45;10.35;;;;;;;23.47;60.15;101290.91;5037786;28;20076;-61
2022/07/22 08:46:03;;;;;;;23.70;11.07;;;;;;;23.55;60.11;101273.72;5040559;28;20060;-61
2022/07/22 08:48:43;;;;;;;23.65;10.82;;;;;;;23.45;60.07;101265.94;5052787;28;20483;-63
2022/07/22 08:51:23;;;;;;;21.23;10.57;;;;;;;23.48;60.73;101267.19;5034093;28;20472;-64
2022/07/22 08:53:57;;;;;;;26.42;10.63;;;;;;;23.74;60.07;101252.97;5049572;28;20064;-63
2022/07/22 08:56:25;;;;;;;27.27;10.52;;;;;;;23.73;60.01;101240.91;5037687;28;20265;-63
2022/07/22 08:58:52;;;;;;;20.98;10.05;;;;;;;23.83;59.63;101228.13;5020941;28;20057;-63
2022/07/22 09:01:20;;;;;;;22.13;10.32;;;;;;;23.67;59.95;101211.53;5045110;28;20051;-63
2022/07/22 09:03:55;;;;;;;19.02;10.75;;;;;;;23.51;60.53;101194.13;5062041;28;20045;-64
2022/07/22 09:06:33;;;;;;;19.98;10.57;;;;;;;23.59;60.48;101178.09;5053497;28;20377;-63
2022/07/22 09:09:04;;;;;;;17.83;9.73;;;;;;;23.89;60.13;101199.22;5006430;28;20404;-64
2022/07/22 09:12:12;;;;;;;19.25;10.10;;;;;;;23.95;59.90;101219.34;5049623;28;20053;-64
2022/07/22 09:15:26;;;;;;;17.58;9.77;;;;;;;24.34;59.03;101234.50;5038519;28;20049;-64
2022/07/22 09:18:13;;;;;;;17.48;9.38;;;;;;;24.44;58.49;101245.81;5036090;28;20045;-64
2022/07/22 09:21:00;;;;;;;25.83;10.35;;;;;;;24.61;58.16;101255.56;5037450;28;20053;-65
2022/07/22 09:23:41;;;;;;;18.05;9.70;;;;;;;25.12;57.11;101266.66;5021853;28;20060;-63
2022/07/22 09:26:32;;;;;;;20.08;9.45;;;;;;;25.18;56.92;101279.16;5069913;28;20524;-64
2022/07/22 09:29:34;;;;;;;21.40;10.05;;;;;;;25.17;56.87;101266.28;5024856;28;20898;-64
2022/07/22 09:32:15;;;;;;;16.40;9.40;;;;;;;25.34;56.11;101263.50;5048710;28;20057;-65
2022/07/22 09:35:01;;;;;;;22.23;10.70;;;;;;;25.30;55.98;101259.84;5040438;28;20064;-64
2022/07/22 09:37:33;;;;;;;15.98;9.82;;;;;;;25.22;55.75;101246.97;5035831;28;20058;-64
2022/07/22 09:40:17;;;;;;;18.77;9.45;;;;;;;25.41;55.52;101238.16;5048875;28;20061;-65
2022/07/22 09:42:48;;;;;;;16.85;9.70;;;;;;;25.25;55.76;101236.88;5041581;28;20532;-64
2022/07/22 09:45:16;;;;;;;17.08;9.20;;;;;;;25.34;55.53;101238.09;5050518;28;20060;-65
2022/07/22 09:47:44;;;;;;;13.93;9.25;;;;;;;25.44;55.30;101247.81;5025467;28;20049;-64
2022/07/22 09:50:34;;;;;;;19.25;10.27;;;;;;;25.49;55.14;101242.56;5035992;28;20677;-64
2022/07/22 09:53:16;;;;;;;17.80;10.85;;;;;;;25.24;55.41;101253.00;5041107;28;20049;-68
2022/07/22 09:55:50;;;;;;;23.00;9.95;;;;;;;25.41;54.73;101242.97;5018951;28;20045;-64
2022/07/22 09:58:18;;;;;;;18.27;10.25;;;;;;;24.86;56.58;101242.41;5046192;28;20064;-66
2022/07/22 10:00:47;;;;;;;15.90;9.75;;;;;;;25.09;56.49;101247.75;5001179;28;20051;-65
2022/07/22 10:03:26;;;;;;;18.13;9.75;;;;;;;25.43;55.56;101244.19;5042196;28;20374;-65
2022/07/22 10:05:54;;;;;;;16.77;10.10;;;;;;;25.66;55.09;101237.34;5047155;28;20045;-65
2022/07/22 10:08:24;;;;;;;18.50;9.95;;;;;;;25.76;54.27;101233.72;5018806;28;20057;-65
2022/07/22 10:10:52;;;;;;;14.90;8.98;;;;;;;25.99;53.58;101234.91;5040366;28;20262;-65
2022/07/22 10:13:19;;;;;;;14.77;8.68;;;;;;;25.84;53.30;101241.78;5030180;28;20056;-65
2022/07/22 10:15:47;;;;;;;17.13;11.02;;;;;;;25.77;53.72;101232.53;5043566;28;20060;-65
2022/07/22 10:18:17;;;;;;;17.15;10.23;;;;;;;25.47;54.34;101228.06;5042902;28;20053;-65
2022/07/22 10:20:46;;;;;;;19.13;10.38;;;;;;;25.26;55.23;101233.66;5048447;28;20044;-64
2022/07/22 10:23:15;;;;;;;16.67;9.27;;;;;;;25.25;55.28;101231.22;5030373;28;20053;-64
2022/07/22 10:25:54;;;;;;;20.00;10.27;;;;;;;25.46;54.96;101220.81;5008776;28;20065;-65
2022/07/22 10:28:24;;;;;;;18.60;10.63;;;;;;;25.25;55.41;101219.94;5040833;28;20050;-65
2022/07/22 10:30:52;;;;;;;22.75;11.35;;;;;;;24.98;56.29;101211.06;5060161;28;20048;-64
2022/07/22 10:33:21;;;;;;;18.73;10.90;;;;;;;24.72;57.18;101204.94;4996970;28;20058;-62
2022/07/22 10:35:58;;;;;;;22.52;10.75;;;;;;;24.77;57.51;101210.19;5027472;28;20041;-65
2022/07/22 10:38:27;;;;;;;18.25;11.05;;;;;;;24.63;58.20;101201.66;5049810;28;20057;-64
2022/07/22 10:40:59;;;;;;;23.65;11.85;;;;;;;24.35;59.59;101189.06;5020894;28;20076;-64
2022/07/22 10:43:42;;;;;;;22.63;11.82;;;;;;;24.27;60.14;101158.44;5017453;28;20665;-63
2022/07/22 10:46:09;;;;;;;19.25;11.68;;;;;;;24.23;61.39;101129.47;5033973;28;20056;-64
2022/07/22 10:48:37;;;;;;;23.75;11.70;;;;;;;24.18;62.02;101116.56;5023762;28;20053;-62
2022/07/22 10:51:10;;;;;;;21.73;12.48;;;;;;;23.87;63.50;101116.41;5037938;28;20109;-61
2022/07/22 10:53:43;;;;;;;24.75;12.32;;;;;;;23.95;64.18;101130.13;5020291;28;20061;-62
2022/07/22 10:56:20;;;;;;;21.98;12.65;;;;;;;23.99;64.39;101136.59;5027195;28;20050;-62
2022/07/22 10:58:51;;;;;;;19.92;11.90;;;;;;;23.84;64.68;101118.00;5035660;28;20049;-63
2022/07/22 11:01:30;;;;;;;21.45;12.25;;;;;;;23.83;64.57;101112.75;5036284;28;20049;-63
2022/07/22 11:04:33;;;;;;;23.10;12.65;;;;;;;23.98;64.56;101106.81;5031190;28;20046;-63
2022/07/22 11:07:02;;;;;;;21.10;13.50;;;;;;;24.12;64.73;101112.53;5024400;28;20060;-63
2022/07/22 11:09:34;;;;;;;17.20;11.95;;;;;;;24.18;63.95;101102.50;5035909;28;20052;-63
2022/07/22 11:12:02;;;;;;;25.52;12.80;;;;;;;24.02;64.82;101087.97;5023167;28;20815;-64
2022/07/22 11:14:33;;;;;;;17.50;12.03;;;;;;;24.24;64.48;101071.97;5022933;28;20603;-62
2022/07/22 11:17:11;;;;;;;17.23;11.50;;;;;;;24.18;63.48;101071.53;5033899;28;20052;-62
2022/07/22 11:19:39;;;;;;;19.95;11.55;;;;;;;24.02;64.37;101073.91;5033070;28;20049;-67
2022/07/22 11:22:08;;;;;;;22.20;12.10;;;;;;;24.26;63.44;101063.91;5034907;28;20060;-65
2022/07/22 11:24:36;;;;;;;18.95;11.75;;;;;;;24.19;63.41;101064.72;5034919;28;20049;-65
2022/07/22 11:27:04;;;;;;;21.23;11.70;;;;;;;24.24;63.65;101063.50;5020506;28;20041;-65
2022/07/22 11:29:39;;;;;;;19.60;11.35;;;;;;;24.30;63.52;101051.44;5032451;28;20037;-66
2022/07/22 11:32:12;;;;;;;21.00;13.60;;;;;;;24.12;63.75;101052.63;5042006;28;20057;-65